createdAt,value
2018-08-09T00:00:50.767Z,21.74
2018-08-09T00:03:18.814Z,21.64
2018-08-09T00:05:46.860Z,21.68
2018-08-09T00:08:14.915Z,21.49
2018-08-09T00:10:42.989Z,21.36
2018-08-09T00:13:11.069Z,21.41
2018-08-09T00:15:39.130Z,21.48
2018-08-09T00:18:07.206Z,21.46
2018-08-09T00:20:35.263Z,21.53
2018-08-09T00:23:03.331Z,21.52
2018-08-09T00:25:31.403Z,21.39
2018-08-09T00:27:59.474Z,21.32
2018-08-09T00:30:27.536Z,21.39
2018-08-09T00:32:55.617Z,21.48
2018-08-09T00:35:23.653Z,21.39
2018-08-09T00:37:51.738Z,21.31
2018-08-09T00:40:19.794Z,21.30
2018-08-09T00:42:47.876Z,21.33
2018-08-09T00:45:15.919Z,21.37
2018-08-09T00:47:43.983Z,21.32
2018-08-09T00:50:12.051Z,21.38
2018-08-09T00:52:40.103Z,21.26
2018-08-09T00:55:08.171Z,21.23
2018-08-09T00:57:36.232Z,21.23
2018-08-09T01:00:05.130Z,21.22
2018-08-09T01:02:33.319Z,21.23
2018-08-09T01:05:01.394Z,21.20
2018-08-09T01:07:29.454Z,21.41
2018-08-09T01:09:57.532Z,21.63
2018-08-09T01:12:25.604Z,21.93
2018-08-09T01:14:53.708Z,21.92
2018-08-09T01:17:21.776Z,22.24
2018-08-09T01:19:49.834Z,22.49
2018-08-09T01:22:17.914Z,22.58
2018-08-09T01:24:46.075Z,22.54
2018-08-09T01:27:14.120Z,22.60
2018-08-09T01:29:42.192Z,22.61
2018-08-09T01:32:10.254Z,22.58
2018-08-09T01:34:38.315Z,22.75
2018-08-09T01:37:06.378Z,22.81
2018-08-09T01:39:34.457Z,22.89
2018-08-09T01:42:13.832Z,22.88
2018-08-09T01:44:41.905Z,23.02
2018-08-09T01:47:09.990Z,23.07
2018-08-09T01:49:38.096Z,22.91
2018-08-09T01:52:06.556Z,23.12
2018-08-09T01:54:34.622Z,23.16
2018-08-09T01:57:02.688Z,23.17
2018-08-09T01:59:30.759Z,23.19
2018-08-09T02:01:58.839Z,23.12
2018-08-09T02:04:26.937Z,23.10
2018-08-09T02:06:54.990Z,23.13
2018-08-09T02:09:28.386Z,23.08
2018-08-09T02:11:56.454Z,23.10
2018-08-09T02:14:24.551Z,23.05
2018-08-09T02:16:52.639Z,23.07
2018-08-09T02:19:20.929Z,23.10
2018-08-09T02:21:48.986Z,23.05
2018-08-09T02:24:17.159Z,23.06
2018-08-09T02:26:45.258Z,23.15
2018-08-09T02:29:13.316Z,23.12
2018-08-09T02:31:41.375Z,23.02
2018-08-09T02:34:09.648Z,23.01
2018-08-09T02:36:37.696Z,23.10
2018-08-09T02:39:07.557Z,23.10
2018-08-09T02:41:35.780Z,23.05
2018-08-09T02:44:03.934Z,23.07
2018-08-09T02:46:32.006Z,23.04
2018-08-09T02:49:00.072Z,23.04
2018-08-09T02:51:28.287Z,22.98
2018-08-09T02:53:56.352Z,22.96
2018-08-09T02:56:24.544Z,23.04
2018-08-09T02:58:52.680Z,22.90
2018-08-09T03:01:20.740Z,22.87
2018-08-09T03:03:48.817Z,22.89
2018-08-09T03:06:16.871Z,22.90
2018-08-09T03:08:44.930Z,22.91
2018-08-09T03:11:13.054Z,22.86
2018-08-09T03:13:41.220Z,22.90
2018-08-09T03:16:09.322Z,22.95
2018-08-09T03:18:37.350Z,22.90
2018-08-09T03:21:05.402Z,22.94
2018-08-09T03:23:33.548Z,22.90
2018-08-09T03:26:01.639Z,22.88
2018-08-09T03:28:29.687Z,22.90
2018-08-09T03:30:57.980Z,22.84
2018-08-09T03:33:26.028Z,22.83
2018-08-09T03:35:54.131Z,22.77
2018-08-09T03:38:22.199Z,22.80
2018-08-09T03:40:50.322Z,22.79
2018-08-09T03:43:18.360Z,22.85
2018-08-09T03:45:46.414Z,22.86
2018-08-09T03:48:14.492Z,22.78
2018-08-09T03:50:42.560Z,22.81
2018-08-09T03:53:10.634Z,22.78
2018-08-09T03:55:38.683Z,22.84
2018-08-09T03:58:07.827Z,22.84
2018-08-09T04:00:35.854Z,22.88
2018-08-09T04:03:03.922Z,22.86
2018-08-09T04:05:31.993Z,22.77
2018-08-09T04:08:00.045Z,22.83
2018-08-09T04:10:28.255Z,22.81
2018-08-09T04:12:56.470Z,22.91
2018-08-09T04:15:24.535Z,22.82
2018-08-09T04:17:52.628Z,22.77
2018-08-09T04:20:20.643Z,22.66
2018-08-09T04:22:48.714Z,22.76
2018-08-09T04:25:16.829Z,22.70
2018-08-09T04:27:44.888Z,22.68
2018-08-09T04:30:13.045Z,22.73
2018-08-09T04:32:41.101Z,22.74
2018-08-09T04:35:09.150Z,22.75
2018-08-09T04:37:37.241Z,22.75
2018-08-09T04:40:05.343Z,22.73
2018-08-09T04:42:33.394Z,22.83
2018-08-09T04:45:01.489Z,22.79
2018-08-09T04:47:29.542Z,22.83
2018-08-09T04:49:57.612Z,22.81
2018-08-09T04:52:25.665Z,22.77
2018-08-09T04:54:53.728Z,22.77
2018-08-09T04:57:21.775Z,22.81
2018-08-09T04:59:49.868Z,22.90
2018-08-09T05:02:17.946Z,22.99
2018-08-09T05:04:46.001Z,22.96
2018-08-09T05:07:14.072Z,22.89
2018-08-09T05:09:42.195Z,22.85
2018-08-09T05:12:10.231Z,22.98
2018-08-09T05:14:38.281Z,22.94
2018-08-09T05:17:06.354Z,22.97
2018-08-09T05:19:34.454Z,23.06
2018-08-09T05:22:02.525Z,23.07
2018-08-09T05:24:30.740Z,23.03
2018-08-09T05:26:58.963Z,23.05
2018-08-09T05:29:27.056Z,23.10
2018-08-09T05:31:55.190Z,23.08
2018-08-09T05:34:23.341Z,23.11
2018-08-09T05:36:51.408Z,22.99
2018-08-09T05:39:19.483Z,22.91
2018-08-09T05:41:47.715Z,22.86
2018-08-09T05:44:15.803Z,22.92
2018-08-09T05:46:43.894Z,22.92
2018-08-09T05:49:11.947Z,23.04
2018-08-09T05:51:40.024Z,23.07
2018-08-09T05:54:08.084Z,23.07
2018-08-09T05:56:36.162Z,23.20
2018-08-09T05:59:04.246Z,23.29
2018-08-09T06:01:32.352Z,23.41
2018-08-09T06:04:00.430Z,23.43
2018-08-09T06:06:28.507Z,23.49
2018-08-09T06:08:56.598Z,23.49
2018-08-09T06:11:24.700Z,23.56
2018-08-09T06:13:52.747Z,23.67
2018-08-09T06:16:21.681Z,23.57
2018-08-09T06:18:49.746Z,23.52
2018-08-09T06:21:17.787Z,23.60
2018-08-09T06:23:45.853Z,23.60
2018-08-09T06:26:13.932Z,23.66
2018-08-09T06:28:42.022Z,23.82
2018-08-09T06:31:10.086Z,23.89
2018-08-09T06:33:38.153Z,23.96
2018-08-09T06:36:06.249Z,23.95
2018-08-09T06:38:34.375Z,23.97
2018-08-09T06:41:02.439Z,24.07
2018-08-09T06:43:30.515Z,24.13
2018-08-09T06:45:58.685Z,24.12
2018-08-09T06:48:26.799Z,24.15
2018-08-09T06:50:54.947Z,24.19
2018-08-09T06:53:22.998Z,24.18
2018-08-09T06:55:51.072Z,24.32
2018-08-09T06:58:19.189Z,24.46
2018-08-09T07:00:47.251Z,24.59
2018-08-09T07:03:15.322Z,24.76
2018-08-09T07:05:43.374Z,24.75
2018-08-09T07:08:11.611Z,24.95
2018-08-09T07:10:39.814Z,25.13
2018-08-09T07:13:07.876Z,25.31
2018-08-09T07:15:35.969Z,25.42
2018-08-09T07:18:04.033Z,25.49
2018-08-09T07:20:32.095Z,25.60
2018-08-09T07:23:00.157Z,25.75
2018-08-09T07:25:28.232Z,25.96
2018-08-09T07:27:56.342Z,26.13
2018-08-09T07:30:24.407Z,26.30
2018-08-09T07:32:52.466Z,26.48
2018-08-09T07:35:20.536Z,26.63
2018-08-09T07:37:48.594Z,26.72
2018-08-09T07:40:16.750Z,26.81
2018-08-09T07:42:44.849Z,26.97
2018-08-09T07:45:13.896Z,26.99
2018-08-09T07:47:41.990Z,27.11
2018-08-09T07:50:10.643Z,27.16
2018-08-09T07:52:38.946Z,27.29
2018-08-09T07:55:08.543Z,27.23
2018-08-09T07:57:36.600Z,27.29
2018-08-09T08:00:06.327Z,27.33
2018-08-09T08:02:34.421Z,27.42
2018-08-09T08:05:02.602Z,27.50
2018-08-09T08:07:30.668Z,27.66
2018-08-09T08:09:58.739Z,27.73
2018-08-09T08:12:26.810Z,27.85
2018-08-09T08:14:54.869Z,27.88
2018-08-09T08:17:22.954Z,27.86
2018-08-09T08:19:51.125Z,27.93
2018-08-09T08:22:19.214Z,27.94
2018-08-09T08:24:47.594Z,27.91
2018-08-09T08:27:15.646Z,27.85
2018-08-09T08:29:43.810Z,27.95
2018-08-09T08:32:11.948Z,28.02
2018-08-09T08:34:40.189Z,28.00
2018-08-09T08:37:08.194Z,28.08
2018-08-09T08:39:36.727Z,28.09
2018-08-09T08:42:04.837Z,28.05
2018-08-09T08:44:32.899Z,28.03
2018-08-09T08:47:00.979Z,28.13
2018-08-09T08:49:29.040Z,28.18
2018-08-09T08:51:57.098Z,28.32
2018-08-09T08:54:25.810Z,28.36
2018-08-09T08:56:53.880Z,28.40
2018-08-09T08:59:21.975Z,28.56
2018-08-09T09:01:50.060Z,28.73
2018-08-09T09:04:18.176Z,28.84
2018-08-09T09:06:46.210Z,28.89
2018-08-09T09:09:14.690Z,29.05
2018-08-09T09:11:43.020Z,29.19
2018-08-09T09:14:11.524Z,29.16
2018-08-09T09:16:39.599Z,29.32
2018-08-09T09:19:08.158Z,29.41
2018-08-09T09:21:36.260Z,29.50
2018-08-09T09:24:04.338Z,29.65
2018-08-09T09:26:32.480Z,29.62
2018-08-09T09:29:00.536Z,29.65
2018-08-09T09:31:28.586Z,29.77
2018-08-09T09:33:56.673Z,29.85
2018-08-09T09:36:25.448Z,29.83
2018-08-09T10:39:38.698Z,31.03
2018-08-09T10:42:07.063Z,31.32
2018-08-09T10:44:35.261Z,31.46
2018-08-09T10:47:03.516Z,31.68
2018-08-09T10:49:31.745Z,31.76
2018-08-09T10:51:59.903Z,31.80
2018-08-09T10:54:28.072Z,31.99
2018-08-09T10:56:56.245Z,32.05
2018-08-09T10:59:24.542Z,32.08
2018-08-09T11:01:52.756Z,32.13
2018-08-09T11:04:21.503Z,32.07
2018-08-09T11:06:49.685Z,32.12
2018-08-09T11:09:17.887Z,32.09
2018-08-09T11:11:49.089Z,32.11
2018-08-09T11:14:17.433Z,32.43
2018-08-09T11:16:45.725Z,32.44
2018-08-09T11:19:17.286Z,32.40
2018-08-09T11:21:46.215Z,32.44
2018-08-09T11:24:14.407Z,32.54
2018-08-09T11:26:42.600Z,32.72
2018-08-09T11:32:05.064Z,32.95
2018-08-09T11:34:33.345Z,33.11
2018-08-09T11:37:02.238Z,33.18
2018-08-09T11:39:31.035Z,33.33
2018-08-09T11:41:59.503Z,33.33
2018-08-09T11:44:27.760Z,33.25
2018-08-09T11:46:55.975Z,33.26
2018-08-09T11:49:24.223Z,33.40
2018-08-09T11:51:52.606Z,33.53
2018-08-09T11:54:21.255Z,34.02
2018-08-09T11:56:49.497Z,33.80
2018-08-09T11:59:17.773Z,33.90
2018-08-09T12:01:47.059Z,33.99
2018-08-09T12:04:21.617Z,34.07
2018-08-09T12:06:50.116Z,34.15
2018-08-09T12:09:23.173Z,34.38
2018-08-09T12:11:51.363Z,34.51
2018-08-09T12:14:23.375Z,34.54
2018-08-09T12:16:52.263Z,34.60
2018-08-09T12:19:20.476Z,34.49
2018-08-09T12:21:59.387Z,34.51
2018-08-09T12:24:32.969Z,34.58
2018-08-09T12:27:10.516Z,34.51
2018-08-09T12:29:38.699Z,34.51
2018-08-09T12:32:07.688Z,34.66
2018-08-09T12:34:37.618Z,34.62
2018-08-09T12:37:10.429Z,34.40
2018-08-09T12:39:38.636Z,34.43
2018-08-09T12:42:06.819Z,34.36
2018-08-09T12:44:34.996Z,34.31
2018-08-09T12:47:04.854Z,34.32
2018-08-09T12:49:33.053Z,34.39
2018-08-09T12:52:01.241Z,34.36
2018-08-09T12:54:29.413Z,34.30
2018-08-09T12:56:57.840Z,34.25
2018-08-09T12:59:26.056Z,34.21
2018-08-09T13:01:54.279Z,34.29
2018-08-09T13:04:22.478Z,34.35
2018-08-09T13:06:51.344Z,34.08
2018-08-09T13:09:19.532Z,33.99
2018-08-09T13:11:47.689Z,33.68
2018-08-09T13:14:16.121Z,33.50
2018-08-09T13:16:44.344Z,33.38
2018-08-09T13:19:12.629Z,30.35
2018-08-09T13:21:40.818Z,29.16
2018-08-09T13:24:09.031Z,28.61
2018-08-09T13:26:37.169Z,27.57
2018-08-09T13:29:05.472Z,27.10
2018-08-09T13:31:33.546Z,26.48
2018-08-09T13:34:01.796Z,24.76
2018-08-09T13:36:29.875Z,24.09
2018-08-09T13:38:58.012Z,23.55
2018-08-09T13:41:26.135Z,23.41
2018-08-09T13:43:54.318Z,23.62
2018-08-09T13:46:22.530Z,23.71
2018-08-09T13:48:50.640Z,23.70
2018-08-09T13:51:18.743Z,23.18
2018-08-09T13:53:47.030Z,23.36
2018-08-09T13:56:15.365Z,23.62
2018-08-09T13:58:43.516Z,23.84
2018-08-09T14:01:11.676Z,23.80
2018-08-09T14:03:39.740Z,23.86
2018-08-09T14:06:07.951Z,23.69
2018-08-09T14:08:36.171Z,23.45
2018-08-09T14:11:04.454Z,23.14
2018-08-09T14:13:32.684Z,23.09
2018-08-09T14:16:00.759Z,23.18
2018-08-09T14:18:29.044Z,23.33
2018-08-09T14:20:57.280Z,23.40
2018-08-09T14:23:25.343Z,23.85
2018-08-09T14:25:53.522Z,24.09
2018-08-09T14:28:21.715Z,24.24
2018-08-09T14:30:50.017Z,24.36
2018-08-09T14:33:18.319Z,24.37
2018-08-09T14:35:46.475Z,24.63
2018-08-09T14:38:14.567Z,24.75
2018-08-09T14:40:42.680Z,24.80
2018-08-09T14:43:10.890Z,24.78
2018-08-09T14:45:38.995Z,24.76
2018-08-09T14:48:07.108Z,24.84
2018-08-09T14:50:35.194Z,24.93
2018-08-09T14:53:05.299Z,25.08
2018-08-09T14:55:36.257Z,25.20
2018-08-09T14:58:09.283Z,25.23
2018-08-09T15:00:40.810Z,25.30
2018-08-09T15:03:11.864Z,25.32
2018-08-09T15:05:41.606Z,25.56
2018-08-09T15:08:18.139Z,25.56
2018-08-09T15:10:46.739Z,25.63
2018-08-09T15:13:17.210Z,25.60
2018-08-09T15:15:54.869Z,25.65
2018-08-09T15:18:24.560Z,25.99
2018-08-09T15:20:54.430Z,26.24
2018-08-09T15:23:29.039Z,26.31
2018-08-09T15:25:59.101Z,26.16
2018-08-09T15:28:29.033Z,26.11
2018-08-09T15:30:59.210Z,26.06
2018-08-09T15:33:28.273Z,26.00
2018-08-09T15:35:59.392Z,25.96
2018-08-09T15:38:29.924Z,26.06
2018-08-09T15:41:01.066Z,26.17
2018-08-09T15:43:29.970Z,26.04
2018-08-09T15:48:58.304Z,26.34
2018-08-09T15:51:35.013Z,26.26
2018-08-09T15:54:08.065Z,26.35
2018-08-09T15:56:36.506Z,26.36
2018-08-09T15:59:24.978Z,26.41
2018-08-09T16:01:57.535Z,26.21
2018-08-09T16:04:26.207Z,26.09
2018-08-09T16:06:55.433Z,26.21
2018-08-09T16:09:23.544Z,26.51
2018-08-09T16:11:51.644Z,26.43
2018-08-09T16:14:19.732Z,26.63
2018-08-09T16:16:47.837Z,26.91
2018-08-09T16:19:15.999Z,26.80
2018-08-09T16:21:44.090Z,27.16
2018-08-09T16:24:12.207Z,26.87
2018-08-09T16:26:40.953Z,26.96
2018-08-09T16:29:09.179Z,26.73
2018-08-09T16:31:37.435Z,26.78
2018-08-09T16:34:05.627Z,26.40
2018-08-09T16:36:33.816Z,26.30
2018-08-09T16:39:01.883Z,26.35
2018-08-09T16:41:29.958Z,26.52
2018-08-09T16:43:58.070Z,26.54
2018-08-09T16:46:26.268Z,26.69
2018-08-09T16:48:54.390Z,26.60
2018-08-09T16:51:22.472Z,26.22
2018-08-09T16:53:50.592Z,25.97
2018-08-09T16:56:18.698Z,25.74
2018-08-09T16:58:46.833Z,25.71
2018-08-09T17:01:14.911Z,25.85
2018-08-09T17:03:42.979Z,25.70
2018-08-09T17:06:11.063Z,25.76
2018-08-09T17:08:39.139Z,25.48
2018-08-09T17:11:08.116Z,25.70
2018-08-09T17:13:36.199Z,25.44
2018-08-09T17:16:04.320Z,25.43
2018-08-09T17:18:32.406Z,25.41
2018-08-09T17:21:00.502Z,25.46
2018-08-09T17:23:31.182Z,25.36
2018-08-09T17:25:59.416Z,25.40
2018-08-09T17:28:27.553Z,25.39
2018-08-09T17:30:55.694Z,25.39
2018-08-09T17:33:24.012Z,25.39
2018-08-09T17:35:52.136Z,25.50
2018-08-09T17:38:20.248Z,25.33
2018-08-09T17:40:49.108Z,25.42
2018-08-09T17:43:20.531Z,25.38
2018-08-09T17:45:48.613Z,25.25
2018-08-09T17:48:16.691Z,25.33
2018-08-09T17:50:44.883Z,25.21
2018-08-09T17:53:13.115Z,25.40
2018-08-09T17:55:41.188Z,25.39
2018-08-09T17:58:09.468Z,25.34
2018-08-09T18:00:37.535Z,25.23
2018-08-09T18:03:06.053Z,24.97
2018-08-09T18:05:34.131Z,24.99
2018-08-09T18:08:02.324Z,24.78
2018-08-09T18:10:32.233Z,24.81
2018-08-09T18:13:00.609Z,24.83
2018-08-09T18:15:29.554Z,24.81
2018-08-09T18:17:58.260Z,24.79
2018-08-09T18:20:28.554Z,24.85
2018-08-09T18:22:56.945Z,24.75
2018-08-09T18:25:25.299Z,24.76
2018-08-09T18:27:53.511Z,24.74
2018-08-09T18:30:24.318Z,24.71
2018-08-09T18:32:57.773Z,24.66
2018-08-09T18:35:27.309Z,24.65
2018-08-09T18:37:59.050Z,24.64
2018-08-09T18:40:31.121Z,24.68
2018-08-09T18:43:07.803Z,24.70
2018-08-09T18:45:36.285Z,24.69
2018-08-09T18:48:04.667Z,24.67
2018-08-09T18:50:35.289Z,24.52
2018-08-09T18:53:03.745Z,24.53
2018-08-09T18:55:31.989Z,24.46
2018-08-09T18:58:00.602Z,24.34
2018-08-09T19:00:30.073Z,24.24
2018-08-09T19:03:03.150Z,24.00
2018-08-09T19:05:32.295Z,24.01
2018-08-09T19:08:01.419Z,24.28
2018-08-09T19:10:31.844Z,24.10
2018-08-09T19:13:11.300Z,24.10
2018-08-09T19:15:43.836Z,23.93
2018-08-09T19:18:13.354Z,23.93
2018-08-09T19:20:41.740Z,23.97
2018-08-09T19:23:09.944Z,23.91
2018-08-09T19:25:38.189Z,23.84
2018-08-09T19:28:10.550Z,23.75
2018-08-09T19:30:39.077Z,23.71
2018-08-09T19:33:08.246Z,23.89
2018-08-09T19:35:36.532Z,23.89
2018-08-09T19:38:07.406Z,23.84
2018-08-09T19:40:36.787Z,23.84
2018-08-09T19:43:05.295Z,23.87
2018-08-09T19:45:34.217Z,23.86
2018-08-09T19:48:03.436Z,23.85
2018-08-09T19:50:31.748Z,23.80
2018-08-09T19:53:01.047Z,23.75
2018-08-09T19:55:34.341Z,23.59
2018-08-09T19:58:06.757Z,23.84
2018-08-09T20:00:35.788Z,23.80
2018-08-09T20:03:07.696Z,23.62
2018-08-09T20:05:35.750Z,23.61
2018-08-09T20:08:03.913Z,23.71
2018-08-09T20:10:34.439Z,23.63
2018-08-09T20:13:02.714Z,23.68
2018-08-09T20:15:31.231Z,23.53
2018-08-09T20:18:03.044Z,23.49
2018-08-09T20:20:31.293Z,23.51
2018-08-09T20:22:59.632Z,23.43
2018-08-09T20:25:28.494Z,23.41
2018-08-09T20:27:57.334Z,23.36
2018-08-09T20:30:26.694Z,23.34
2018-08-09T20:32:54.967Z,23.31
2018-08-09T20:35:24.667Z,23.35
2018-08-09T20:37:53.089Z,23.30
2018-08-09T20:40:22.533Z,23.40
2018-08-09T20:42:52.548Z,23.37
2018-08-09T20:45:22.762Z,23.25
2018-08-09T20:47:51.033Z,23.40
2018-08-09T20:50:22.988Z,23.18
2018-08-09T21:14:58.394Z,22.91
2018-08-09T21:17:26.595Z,22.83
2018-08-09T21:19:55.073Z,22.95
2018-08-09T21:22:23.828Z,22.87
2018-08-09T21:24:52.963Z,22.86
2018-08-09T21:27:25.338Z,22.76
2018-08-09T21:29:55.268Z,22.85
2018-08-09T21:32:25.472Z,22.79
2018-08-09T21:34:54.122Z,22.70
2018-08-09T21:37:22.916Z,22.59
2018-08-09T21:39:51.188Z,22.45
2018-08-09T21:42:19.834Z,22.50
2018-08-09T21:44:48.792Z,22.47
2018-08-09T21:47:16.937Z,22.33
2018-08-09T21:49:45.370Z,22.47
2018-08-09T21:52:13.635Z,22.34
2018-08-09T21:54:42.083Z,22.31
2018-08-09T21:57:10.273Z,22.20
2018-08-09T21:59:39.467Z,22.41
2018-08-09T22:02:07.468Z,22.51
2018-08-09T22:04:39.851Z,22.31
2018-08-09T22:07:13.682Z,22.02
2018-08-09T22:09:51.074Z,21.95
2018-08-09T22:12:25.049Z,21.96
2018-08-09T22:14:58.575Z,21.67
2018-08-09T22:17:32.020Z,21.76
2018-08-09T22:20:05.463Z,21.67
2018-08-09T22:22:36.350Z,21.61
2018-08-09T22:25:06.100Z,21.54
2018-08-09T22:27:34.340Z,21.57
2018-08-09T22:30:02.436Z,21.52
2018-08-09T22:32:30.592Z,21.55
2018-08-09T22:34:58.687Z,21.42
2018-08-09T22:37:26.879Z,21.30
2018-08-09T22:39:54.956Z,21.39
2018-08-09T22:42:23.043Z,21.27
2018-08-09T22:44:51.244Z,21.25
2018-08-09T22:47:19.327Z,21.18
2018-08-09T22:49:47.384Z,21.11
2018-08-09T22:52:15.445Z,21.06
2018-08-09T22:54:43.505Z,21.05
2018-08-09T22:57:11.577Z,21.01
2018-08-09T22:59:39.667Z,21.05
2018-08-09T23:02:07.781Z,20.97
2018-08-09T23:04:35.847Z,20.97
2018-08-09T23:07:03.963Z,20.97
2018-08-09T23:09:32.046Z,20.89
2018-08-09T23:12:00.139Z,20.76
2018-08-09T23:14:28.207Z,20.69
2018-08-09T23:16:56.295Z,20.69
2018-08-09T23:19:24.369Z,20.70
2018-08-09T23:21:52.420Z,20.64
2018-08-09T23:24:20.509Z,20.70
2018-08-09T23:26:48.571Z,20.63
2018-08-09T23:29:16.640Z,20.77
2018-08-09T23:31:44.716Z,20.62
2018-08-09T23:34:12.800Z,20.59
2018-08-09T23:36:40.930Z,20.51
2018-08-09T23:39:11.175Z,20.48
2018-08-09T23:41:39.248Z,20.40
2018-08-09T23:44:07.463Z,20.42
2018-08-09T23:46:35.544Z,20.37
2018-08-09T23:49:03.624Z,20.31
2018-08-09T23:51:31.700Z,20.43
2018-08-09T23:53:59.787Z,20.34
2018-08-09T23:56:27.960Z,20.28
2018-08-09T23:58:56.034Z,20.32
